Santa Clara, California
Current Conditions -  °F | °C
As of 6:53 AM on Wednesday 22 Oct 2014 (Local Time) from KSJC Reporting Station
Broken Clouds Broken Clouds  
Wind Chill: 51°   Ceiling: 18000
Heat Index: 51°   Visibility: 10mi
Dew Point: 46°   Wind: 3mph
Humidity: 83%   Direction: 140°SE
Pressure: 30.04"   Gusts: NA
Location:  37.36°N, 121.95°W
Report Text: KSJC 221353Z 14003KT 10SM FEW085 SCT130 BKN180 11/08 A3004 RMK AO2 SLP173 T01060078
Loading
Personal Weather Stations






























Interactive Weather Map
Tropical Storm Tracking
New forecast layout! Learn more

10-Day Weather Forecast

Advertisements
Track Severe Weather on mobile